sensor_id;sensor_type;location;lat;lon;timestamp;P1;durP1;ratioP1;P2;durP2;ratioP2
27365;SDS011;14837;57.148;-2.144;2024-03-08T00:02:16;3.00;;;2.58;;
27365;SDS011;14837;57.148;-2.144;2024-03-08T00:04:42;4.00;;;3.05;;
27365;SDS011;14837;57.148;-2.144;2024-03-08T00:07:09;4.03;;;3.10;;
27365;SDS011;14837;57.148;-2.144;2024-03-08T00:09:35;3.25;;;2.95;;
27365;SDS011;14837;57.148;-2.144;2024-03-08T00:12:02;3.97;;;2.35;;
27365;SDS011;14837;57.148;-2.144;2024-03-08T00:14:29;4.80;;;2.78;;
27365;SDS011;14837;57.148;-2.144;2024-03-08T00:16:56;5.28;;;2.83;;
27365;SDS011;14837;57.148;-2.144;2024-03-08T00:19:22;3.40;;;2.50;;
27365;SDS011;14837;57.148;-2.144;2024-03-08T00:21:49;4.18;;;2.78;;
27365;SDS011;14837;57.148;-2.144;2024-03-08T00:24:15;4.43;;;3.00;;
27365;SDS011;14837;57.148;-2.144;2024-03-08T00:26:42;3.53;;;2.90;;
27365;SDS011;14837;57.148;-2.144;2024-03-08T00:29:09;5.50;;;3.22;;
27365;SDS011;14837;57.148;-2.144;2024-03-08T00:31:36;3.78;;;2.83;;
27365;SDS011;14837;57.148;-2.144;2024-03-08T00:34:03;3.05;;;2.60;;
27365;SDS011;14837;57.148;-2.144;2024-03-08T00:36:30;3.20;;;2.50;;
27365;SDS011;14837;57.148;-2.144;2024-03-08T00:38:56;4.18;;;3.33;;
27365;SDS011;14837;57.148;-2.144;2024-03-08T00:41:23;2.92;;;2.63;;
27365;SDS011;14837;57.148;-2.144;2024-03-08T00:43:52;2.92;;;2.40;;
27365;SDS011;14837;57.148;-2.144;2024-03-08T00:46:19;2.78;;;2.42;;
27365;SDS011;14837;57.148;-2.144;2024-03-08T00:48:46;2.92;;;2.67;;
27365;SDS011;14837;57.148;-2.144;2024-03-08T00:51:13;3.80;;;3.13;;
27365;SDS011;14837;57.148;-2.144;2024-03-08T00:53:41;2.80;;;2.50;;
27365;SDS011;14837;57.148;-2.144;2024-03-08T00:56:09;3.33;;;2.97;;
27365;SDS011;14837;57.148;-2.144;2024-03-08T00:58:39;4.60;;;2.95;;
27365;SDS011;14837;57.148;-2.144;2024-03-08T01:01:06;3.97;;;3.15;;
27365;SDS011;14837;57.148;-2.144;2024-03-08T01:03:33;5.22;;;3.47;;
27365;SDS011;14837;57.148;-2.144;2024-03-08T01:06:00;6.85;;;3.58;;
27365;SDS011;14837;57.148;-2.144;2024-03-08T01:08:31;4.00;;;3.63;;
27365;SDS011;14837;57.148;-2.144;2024-03-08T01:10:57;3.28;;;2.97;;
27365;SDS011;14837;57.148;-2.144;2024-03-08T01:13:24;4.47;;;3.35;;
27365;SDS011;14837;57.148;-2.144;2024-03-08T01:15:50;3.75;;;2.90;;
27365;SDS011;14837;57.148;-2.144;2024-03-08T01:18:17;3.08;;;2.78;;
27365;SDS011;14837;57.148;-2.144;2024-03-08T01:20:44;3.38;;;2.53;;
27365;SDS011;14837;57.148;-2.144;2024-03-08T01:23:10;3.70;;;3.35;;
27365;SDS011;14837;57.148;-2.144;2024-03-08T01:25:37;3.75;;;3.05;;
27365;SDS011;14837;57.148;-2.144;2024-03-08T01:28:04;3.38;;;3.08;;
27365;SDS011;14837;57.148;-2.144;2024-03-08T01:30:30;3.50;;;3.20;;
27365;SDS011;14837;57.148;-2.144;2024-03-08T01:32:58;3.20;;;2.90;;
27365;SDS011;14837;57.148;-2.144;2024-03-08T01:35:25;3.40;;;3.10;;
27365;SDS011;14837;57.148;-2.144;2024-03-08T01:37:53;4.30;;;3.67;;
27365;SDS011;14837;57.148;-2.144;2024-03-08T01:40:20;4.00;;;3.35;;
27365;SDS011;14837;57.148;-2.144;2024-03-08T01:42:46;4.10;;;3.22;;
27365;SDS011;14837;57.148;-2.144;2024-03-08T01:45:14;3.75;;;3.35;;
27365;SDS011;14837;57.148;-2.144;2024-03-08T01:47:41;3.30;;;3.00;;
27365;SDS011;14837;57.148;-2.144;2024-03-08T01:50:07;5.43;;;4.20;;
27365;SDS011;14837;57.148;-2.144;2024-03-08T01:52:34;4.35;;;3.60;;
27365;SDS011;14837;57.148;-2.144;2024-03-08T01:55:02;5.18;;;3.72;;
27365;SDS011;14837;57.148;-2.144;2024-03-08T01:57:30;4.13;;;3.72;;
27365;SDS011;14837;57.148;-2.144;2024-03-08T01:59:57;5.18;;;4.30;;
27365;SDS011;14837;57.148;-2.144;2024-03-08T02:02:24;5.03;;;4.00;;
27365;SDS011;14837;57.148;-2.144;2024-03-08T02:04:50;4.68;;;3.95;;
27365;SDS011;14837;57.148;-2.144;2024-03-08T02:07:19;8.02;;;4.50;;
27365;SDS011;14837;57.148;-2.144;2024-03-08T02:09:46;6.57;;;4.90;;
27365;SDS011;14837;57.148;-2.144;2024-03-08T02:12:12;4.50;;;3.45;;
27365;SDS011;14837;57.148;-2.144;2024-03-08T02:14:39;5.07;;;3.90;;
27365;SDS011;14837;57.148;-2.144;2024-03-08T02:17:06;4.63;;;3.80;;
27365;SDS011;14837;57.148;-2.144;2024-03-08T02:19:34;6.53;;;4.80;;
27365;SDS011;14837;57.148;-2.144;2024-03-08T02:22:02;5.95;;;4.45;;
27365;SDS011;14837;57.148;-2.144;2024-03-08T02:24:31;4.40;;;3.60;;
27365;SDS011;14837;57.148;-2.144;2024-03-08T02:26:58;5.47;;;4.20;;
27365;SDS011;14837;57.148;-2.144;2024-03-08T02:29:24;3.80;;;3.42;;
27365;SDS011;14837;57.148;-2.144;2024-03-08T02:31:51;4.10;;;3.70;;
27365;SDS011;14837;57.148;-2.144;2024-03-08T02:34:18;7.10;;;4.32;;
27365;SDS011;14837;57.148;-2.144;2024-03-08T02:36:44;5.97;;;3.65;;
27365;SDS011;14837;57.148;-2.144;2024-03-08T02:39:11;6.95;;;3.70;;
27365;SDS011;14837;57.148;-2.144;2024-03-08T02:41:38;5.68;;;3.42;;
27365;SDS011;14837;57.148;-2.144;2024-03-08T02:44:04;4.90;;;3.58;;
27365;SDS011;14837;57.148;-2.144;2024-03-08T02:46:31;4.55;;;3.13;;
27365;SDS011;14837;57.148;-2.144;2024-03-08T02:48:57;6.10;;;3.92;;
27365;SDS011;14837;57.148;-2.144;2024-03-08T02:51:24;4.63;;;3.63;;
27365;SDS011;14837;57.148;-2.144;2024-03-08T02:53:52;5.78;;;4.47;;
27365;SDS011;14837;57.148;-2.144;2024-03-08T02:56:19;4.85;;;3.63;;
27365;SDS011;14837;57.148;-2.144;2024-03-08T02:58:48;5.80;;;3.58;;
27365;SDS011;14837;57.148;-2.144;2024-03-08T03:01:15;5.47;;;4.35;;
27365;SDS011;14837;57.148;-2.144;2024-03-08T03:03:42;5.03;;;3.40;;
27365;SDS011;14837;57.148;-2.144;2024-03-08T03:06:09;7.30;;;3.53;;
27365;SDS011;14837;57.148;-2.144;2024-03-08T03:08:36;4.72;;;3.72;;
27365;SDS011;14837;57.148;-2.144;2024-03-08T03:11:03;3.58;;;2.55;;
27365;SDS011;14837;57.148;-2.144;2024-03-08T03:13:30;3.42;;;2.80;;
27365;SDS011;14837;57.148;-2.144;2024-03-08T03:15:56;3.33;;;2.75;;
27365;SDS011;14837;57.148;-2.144;2024-03-08T03:18:24;2.92;;;2.63;;
27365;SDS011;14837;57.148;-2.144;2024-03-08T03:20:52;3.33;;;2.85;;
27365;SDS011;14837;57.148;-2.144;2024-03-08T03:23:19;4.63;;;2.70;;
27365;SDS011;14837;57.148;-2.144;2024-03-08T03:25:47;3.75;;;2.92;;
27365;SDS011;14837;57.148;-2.144;2024-03-08T03:28:13;3.28;;;2.97;;
27365;SDS011;14837;57.148;-2.144;2024-03-08T03:30:46;5.60;;;3.10;;
27365;SDS011;14837;57.148;-2.144;2024-03-08T03:33:13;3.15;;;2.85;;
27365;SDS011;14837;57.148;-2.144;2024-03-08T03:35:42;4.13;;;3.40;;
27365;SDS011;14837;57.148;-2.144;2024-03-08T03:38:09;6.13;;;3.10;;
27365;SDS011;14837;57.148;-2.144;2024-03-08T03:40:37;3.65;;;3.13;;
27365;SDS011;14837;57.148;-2.144;2024-03-08T03:43:05;5.82;;;2.75;;
27365;SDS011;14837;57.148;-2.144;2024-03-08T03:45:31;4.78;;;2.50;;
27365;SDS011;14837;57.148;-2.144;2024-03-08T03:48:07;5.30;;;2.38;;
27365;SDS011;14837;57.148;-2.144;2024-03-08T03:50:36;3.22;;;2.58;;
27365;SDS011;14837;57.148;-2.144;2024-03-08T03:53:04;3.38;;;2.35;;
27365;SDS011;14837;57.148;-2.144;2024-03-08T03:55:35;2.88;;;2.30;;
27365;SDS011;14837;57.148;-2.144;2024-03-08T03:58:03;5.53;;;3.13;;
27365;SDS011;14837;57.148;-2.144;2024-03-08T04:00:30;4.68;;;2.63;;
27365;SDS011;14837;57.148;-2.144;2024-03-08T04:02:56;3.10;;;2.38;;
27365;SDS011;14837;57.148;-2.144;2024-03-08T04:05:26;3.15;;;2.15;;
27365;SDS011;14837;57.148;-2.144;2024-03-08T04:07:53;3.42;;;2.90;;
27365;SDS011;14837;57.148;-2.144;2024-03-08T04:10:20;4.97;;;2.72;;
27365;SDS011;14837;57.148;-2.144;2024-03-08T04:12:46;5.70;;;2.83;;
27365;SDS011;14837;57.148;-2.144;2024-03-08T04:15:13;4.97;;;3.30;;
27365;SDS011;14837;57.148;-2.144;2024-03-08T04:17:40;4.65;;;2.67;;
27365;SDS011;14837;57.148;-2.144;2024-03-08T04:20:07;6.15;;;2.72;;
27365;SDS011;14837;57.148;-2.144;2024-03-08T04:22:37;5.70;;;3.55;;
27365;SDS011;14837;57.148;-2.144;2024-03-08T04:25:03;4.43;;;2.95;;
27365;SDS011;14837;57.148;-2.144;2024-03-08T04:27:30;3.33;;;2.70;;
27365;SDS011;14837;57.148;-2.144;2024-03-08T04:29:59;4.18;;;3.10;;
27365;SDS011;14837;57.148;-2.144;2024-03-08T04:32:25;5.93;;;3.00;;
27365;SDS011;14837;57.148;-2.144;2024-03-08T04:34:52;4.35;;;2.70;;
27365;SDS011;14837;57.148;-2.144;2024-03-08T04:37:18;4.13;;;2.85;;
27365;SDS011;14837;57.148;-2.144;2024-03-08T04:39:48;5.40;;;2.88;;
27365;SDS011;14837;57.148;-2.144;2024-03-08T04:42:14;3.85;;;2.47;;
27365;SDS011;14837;57.148;-2.144;2024-03-08T04:44:42;6.60;;;2.58;;
27365;SDS011;14837;57.148;-2.144;2024-03-08T04:47:09;3.20;;;2.42;;
27365;SDS011;14837;57.148;-2.144;2024-03-08T04:49:37;5.78;;;2.58;;
27365;SDS011;14837;57.148;-2.144;2024-03-08T04:52:03;5.00;;;2.38;;
27365;SDS011;14837;57.148;-2.144;2024-03-08T04:54:30;3.63;;;2.65;;
27365;SDS011;14837;57.148;-2.144;2024-03-08T04:56:57;2.78;;;2.50;;
27365;SDS011;14837;57.148;-2.144;2024-03-08T04:59:24;5.13;;;2.60;;
27365;SDS011;14837;57.148;-2.144;2024-03-08T05:01:50;3.05;;;2.33;;
27365;SDS011;14837;57.148;-2.144;2024-03-08T05:04:17;5.15;;;3.28;;
27365;SDS011;14837;57.148;-2.144;2024-03-08T05:06:44;5.55;;;3.08;;
27365;SDS011;14837;57.148;-2.144;2024-03-08T05:09:10;3.05;;;2.42;;
27365;SDS011;14837;57.148;-2.144;2024-03-08T05:11:43;3.90;;;2.30;;
27365;SDS011;14837;57.148;-2.144;2024-03-08T05:14:11;4.00;;;2.30;;
27365;SDS011;14837;57.148;-2.144;2024-03-08T05:16:38;3.13;;;2.25;;
27365;SDS011;14837;57.148;-2.144;2024-03-08T05:19:05;3.45;;;2.30;;
27365;SDS011;14837;57.148;-2.144;2024-03-08T05:21:32;3.90;;;2.35;;
27365;SDS011;14837;57.148;-2.144;2024-03-08T05:23:59;2.20;;;2.00;;
27365;SDS011;14837;57.148;-2.144;2024-03-08T05:26:26;2.63;;;2.15;;
27365;SDS011;14837;57.148;-2.144;2024-03-08T05:28:52;4.00;;;2.10;;
27365;SDS011;14837;57.148;-2.144;2024-03-08T05:31:21;3.90;;;2.60;;
27365;SDS011;14837;57.148;-2.144;2024-03-08T05:33:49;2.50;;;2.08;;
27365;SDS011;14837;57.148;-2.144;2024-03-08T05:36:16;3.65;;;2.05;;
27365;SDS011;14837;57.148;-2.144;2024-03-08T05:38:46;5.18;;;2.40;;
27365;SDS011;14837;57.148;-2.144;2024-03-08T05:41:12;3.75;;;2.03;;
27365;SDS011;14837;57.148;-2.144;2024-03-08T05:43:40;3.78;;;1.98;;
27365;SDS011;14837;57.148;-2.144;2024-03-08T05:46:07;3.22;;;2.20;;
27365;SDS011;14837;57.148;-2.144;2024-03-08T05:48:33;3.65;;;2.33;;
27365;SDS011;14837;57.148;-2.144;2024-03-08T05:51:00;2.60;;;1.98;;
27365;SDS011;14837;57.148;-2.144;2024-03-08T05:53:28;3.30;;;2.60;;
27365;SDS011;14837;57.148;-2.144;2024-03-08T05:55:58;5.63;;;2.22;;
27365;SDS011;14837;57.148;-2.144;2024-03-08T05:58:25;3.38;;;1.90;;
27365;SDS011;14837;57.148;-2.144;2024-03-08T06:00:51;4.60;;;3.67;;
27365;SDS011;14837;57.148;-2.144;2024-03-08T06:03:19;2.22;;;1.98;;
27365;SDS011;14837;57.148;-2.144;2024-03-08T06:05:48;3.42;;;2.08;;
27365;SDS011;14837;57.148;-2.144;2024-03-08T06:08:15;3.70;;;1.80;;
27365;SDS011;14837;57.148;-2.144;2024-03-08T06:10:42;3.88;;;2.13;;
27365;SDS011;14837;57.148;-2.144;2024-03-08T06:13:08;2.47;;;1.88;;
27365;SDS011;14837;57.148;-2.144;2024-03-08T06:15:35;6.82;;;2.10;;
27365;SDS011;14837;57.148;-2.144;2024-03-08T06:18:01;2.95;;;2.10;;
27365;SDS011;14837;57.148;-2.144;2024-03-08T06:20:29;5.65;;;2.00;;
27365;SDS011;14837;57.148;-2.144;2024-03-08T06:22:55;2.15;;;1.58;;
27365;SDS011;14837;57.148;-2.144;2024-03-08T06:25:22;3.97;;;2.70;;
27365;SDS011;14837;57.148;-2.144;2024-03-08T06:27:48;2.47;;;1.80;;
27365;SDS011;14837;57.148;-2.144;2024-03-08T06:30:15;5.90;;;2.75;;
27365;SDS011;14837;57.148;-2.144;2024-03-08T06:32:42;4.38;;;2.58;;
27365;SDS011;14837;57.148;-2.144;2024-03-08T06:35:09;5.25;;;2.97;;
27365;SDS011;14837;57.148;-2.144;2024-03-08T06:37:36;3.72;;;2.33;;
27365;SDS011;14837;57.148;-2.144;2024-03-08T06:40:03;3.08;;;2.15;;
27365;SDS011;14837;57.148;-2.144;2024-03-08T06:42:30;2.95;;;2.13;;
27365;SDS011;14837;57.148;-2.144;2024-03-08T06:45:01;3.45;;;2.47;;
27365;SDS011;14837;57.148;-2.144;2024-03-08T06:47:32;3.92;;;2.63;;
27365;SDS011;14837;57.148;-2.144;2024-03-08T06:50:00;5.75;;;2.50;;
27365;SDS011;14837;57.148;-2.144;2024-03-08T06:52:26;3.65;;;2.38;;
27365;SDS011;14837;57.148;-2.144;2024-03-08T06:54:53;3.80;;;2.38;;
27365;SDS011;14837;57.148;-2.144;2024-03-08T06:57:19;5.20;;;2.50;;
27365;SDS011;14837;57.148;-2.144;2024-03-08T06:59:49;3.58;;;2.60;;
27365;SDS011;14837;57.148;-2.144;2024-03-08T07:02:15;6.53;;;2.80;;
27365;SDS011;14837;57.148;-2.144;2024-03-08T07:04:42;4.57;;;2.30;;
27365;SDS011;14837;57.148;-2.144;2024-03-08T07:07:08;5.07;;;2.70;;
27365;SDS011;14837;57.148;-2.144;2024-03-08T07:09:36;4.32;;;2.03;;
27365;SDS011;14837;57.148;-2.144;2024-03-08T07:12:02;3.65;;;2.10;;
27365;SDS011;14837;57.148;-2.144;2024-03-08T07:14:29;3.33;;;2.28;;
27365;SDS011;14837;57.148;-2.144;2024-03-08T07:16:57;4.95;;;2.00;;
27365;SDS011;14837;57.148;-2.144;2024-03-08T07:19:24;3.92;;;2.10;;
27365;SDS011;14837;57.148;-2.144;2024-03-08T07:21:50;2.22;;;2.03;;
27365;SDS011;14837;57.148;-2.144;2024-03-08T07:24:16;3.08;;;2.20;;
27365;SDS011;14837;57.148;-2.144;2024-03-08T07:26:43;3.92;;;2.13;;
27365;SDS011;14837;57.148;-2.144;2024-03-08T07:29:10;4.63;;;2.30;;
27365;SDS011;14837;57.148;-2.144;2024-03-08T07:31:36;3.72;;;2.17;;
27365;SDS011;14837;57.148;-2.144;2024-03-08T07:34:03;2.75;;;2.45;;
27365;SDS011;14837;57.148;-2.144;2024-03-08T07:36:33;3.88;;;2.20;;
27365;SDS011;14837;57.148;-2.144;2024-03-08T07:39:00;4.63;;;2.47;;
27365;SDS011;14837;57.148;-2.144;2024-03-08T07:41:27;2.75;;;2.28;;
27365;SDS011;14837;57.148;-2.144;2024-03-08T07:43:55;2.85;;;1.90;;
27365;SDS011;14837;57.148;-2.144;2024-03-08T07:46:22;3.33;;;2.30;;
27365;SDS011;14837;57.148;-2.144;2024-03-08T07:48:49;4.35;;;2.17;;
27365;SDS011;14837;57.148;-2.144;2024-03-08T07:51:16;6.05;;;3.20;;
27365;SDS011;14837;57.148;-2.144;2024-03-08T07:53:44;4.75;;;2.50;;
27365;SDS011;14837;57.148;-2.144;2024-03-08T07:56:11;4.10;;;2.10;;
27365;SDS011;14837;57.148;-2.144;2024-03-08T07:58:39;3.42;;;2.28;;
27365;SDS011;14837;57.148;-2.144;2024-03-08T08:01:07;3.67;;;2.90;;
27365;SDS011;14837;57.148;-2.144;2024-03-08T08:03:33;3.20;;;1.90;;
27365;SDS011;14837;57.148;-2.144;2024-03-08T08:06:01;3.20;;;2.30;;
27365;SDS011;14837;57.148;-2.144;2024-03-08T08:08:28;4.47;;;2.13;;
27365;SDS011;14837;57.148;-2.144;2024-03-08T08:10:54;3.95;;;2.22;;
27365;SDS011;14837;57.148;-2.144;2024-03-08T08:13:21;2.40;;;2.10;;
27365;SDS011;14837;57.148;-2.144;2024-03-08T08:15:49;4.15;;;2.35;;
27365;SDS011;14837;57.148;-2.144;2024-03-08T08:18:15;2.35;;;2.05;;
27365;SDS011;14837;57.148;-2.144;2024-03-08T08:20:42;2.55;;;2.30;;
27365;SDS011;14837;57.148;-2.144;2024-03-08T08:23:09;3.88;;;2.45;;
27365;SDS011;14837;57.148;-2.144;2024-03-08T08:25:37;4.80;;;3.45;;
27365;SDS011;14837;57.148;-2.144;2024-03-08T08:28:04;2.85;;;2.45;;
27365;SDS011;14837;57.148;-2.144;2024-03-08T08:30:31;3.70;;;1.90;;
27365;SDS011;14837;57.148;-2.144;2024-03-08T08:32:59;4.90;;;2.50;;
27365;SDS011;14837;57.148;-2.144;2024-03-08T08:35:27;3.38;;;2.40;;
27365;SDS011;14837;57.148;-2.144;2024-03-08T08:37:55;3.30;;;2.45;;
27365;SDS011;14837;57.148;-2.144;2024-03-08T08:40:22;4.22;;;2.92;;
27365;SDS011;14837;57.148;-2.144;2024-03-08T08:42:49;3.47;;;2.00;;
27365;SDS011;14837;57.148;-2.144;2024-03-08T08:45:16;3.97;;;2.70;;
27365;SDS011;14837;57.148;-2.144;2024-03-08T08:47:49;3.38;;;1.90;;
27365;SDS011;14837;57.148;-2.144;2024-03-08T08:50:16;3.75;;;2.42;;
27365;SDS011;14837;57.148;-2.144;2024-03-08T08:52:49;3.05;;;2.78;;
27365;SDS011;14837;57.148;-2.144;2024-03-08T08:55:16;4.97;;;2.38;;
27365;SDS011;14837;57.148;-2.144;2024-03-08T08:57:47;2.83;;;2.10;;
27365;SDS011;14837;57.148;-2.144;2024-03-08T09:00:15;2.38;;;2.08;;
27365;SDS011;14837;57.148;-2.144;2024-03-08T09:02:42;3.72;;;2.53;;
27365;SDS011;14837;57.148;-2.144;2024-03-08T09:05:09;2.72;;;2.20;;
27365;SDS011;14837;57.148;-2.144;2024-03-08T09:07:35;4.35;;;2.67;;
27365;SDS011;14837;57.148;-2.144;2024-03-08T09:10:02;2.80;;;2.20;;
27365;SDS011;14837;57.148;-2.144;2024-03-08T09:12:43;3.40;;;2.47;;
27365;SDS011;14837;57.148;-2.144;2024-03-08T09:15:09;4.18;;;2.47;;
27365;SDS011;14837;57.148;-2.144;2024-03-08T09:17:39;3.67;;;2.55;;
27365;SDS011;14837;57.148;-2.144;2024-03-08T09:20:07;2.88;;;2.58;;
27365;SDS011;14837;57.148;-2.144;2024-03-08T09:22:35;7.18;;;2.85;;
27365;SDS011;14837;57.148;-2.144;2024-03-08T09:25:01;4.82;;;2.92;;
27365;SDS011;14837;57.148;-2.144;2024-03-08T09:27:31;4.65;;;2.65;;
27365;SDS011;14837;57.148;-2.144;2024-03-08T09:29:58;5.47;;;3.05;;
27365;SDS011;14837;57.148;-2.144;2024-03-08T09:32:24;5.90;;;3.33;;
27365;SDS011;14837;57.148;-2.144;2024-03-08T09:34:51;3.97;;;3.15;;
27365;SDS011;14837;57.148;-2.144;2024-03-08T09:37:17;4.70;;;3.13;;
27365;SDS011;14837;57.148;-2.144;2024-03-08T09:39:45;6.50;;;3.53;;
27365;SDS011;14837;57.148;-2.144;2024-03-08T09:42:11;4.68;;;3.30;;
27365;SDS011;14837;57.148;-2.144;2024-03-08T09:44:44;4.03;;;3.35;;
27365;SDS011;14837;57.148;-2.144;2024-03-08T09:47:15;3.40;;;3.10;;
27365;SDS011;14837;57.148;-2.144;2024-03-08T09:49:42;5.13;;;3.88;;
27365;SDS011;14837;57.148;-2.144;2024-03-08T09:52:09;5.50;;;3.35;;
27365;SDS011;14837;57.148;-2.144;2024-03-08T09:54:37;4.65;;;3.22;;
27365;SDS011;14837;57.148;-2.144;2024-03-08T09:57:03;5.20;;;4.07;;
27365;SDS011;14837;57.148;-2.144;2024-03-08T09:59:30;4.90;;;3.45;;
27365;SDS011;14837;57.148;-2.144;2024-03-08T10:02:03;6.65;;;4.32;;
27365;SDS011;14837;57.148;-2.144;2024-03-08T10:04:30;8.25;;;4.05;;
27365;SDS011;14837;57.148;-2.144;2024-03-08T10:07:00;7.18;;;4.25;;
27365;SDS011;14837;57.148;-2.144;2024-03-08T10:09:27;5.00;;;3.95;;
27365;SDS011;14837;57.148;-2.144;2024-03-08T10:11:57;5.15;;;4.38;;
27365;SDS011;14837;57.148;-2.144;2024-03-08T10:14:27;6.57;;;5.22;;
27365;SDS011;14837;57.148;-2.144;2024-03-08T10:16:54;6.68;;;4.53;;
27365;SDS011;14837;57.148;-2.144;2024-03-08T10:19:20;5.45;;;4.72;;
27365;SDS011;14837;57.148;-2.144;2024-03-08T10:21:49;4.28;;;3.88;;
27365;SDS011;14837;57.148;-2.144;2024-03-08T10:24:18;5.72;;;4.57;;
27365;SDS011;14837;57.148;-2.144;2024-03-08T10:26:45;10.40;;;7.35;;
27365;SDS011;14837;57.148;-2.144;2024-03-08T10:29:13;8.55;;;4.95;;
27365;SDS011;14837;57.148;-2.144;2024-03-08T10:31:45;7.70;;;5.07;;
27365;SDS011;14837;57.148;-2.144;2024-03-08T10:34:11;5.55;;;4.68;;
27365;SDS011;14837;57.148;-2.144;2024-03-08T10:36:39;8.77;;;5.93;;
27365;SDS011;14837;57.148;-2.144;2024-03-08T10:39:08;7.80;;;5.65;;
27365;SDS011;14837;57.148;-2.144;2024-03-08T10:41:39;6.47;;;5.40;;
27365;SDS011;14837;57.148;-2.144;2024-03-08T10:44:10;6.00;;;5.40;;
27365;SDS011;14837;57.148;-2.144;2024-03-08T10:49:08;8.80;;;6.90;;
27365;SDS011;14837;57.148;-2.144;2024-03-08T10:51:36;8.38;;;6.28;;
27365;SDS011;14837;57.148;-2.144;2024-03-08T10:54:04;7.15;;;5.65;;
27365;SDS011;14837;57.148;-2.144;2024-03-08T10:56:31;8.05;;;6.68;;
27365;SDS011;14837;57.148;-2.144;2024-03-08T10:58:58;7.88;;;6.28;;
27365;SDS011;14837;57.148;-2.144;2024-03-08T11:01:24;8.65;;;6.25;;
27365;SDS011;14837;57.148;-2.144;2024-03-08T11:03:52;7.90;;;6.55;;
27365;SDS011;14837;57.148;-2.144;2024-03-08T11:06:29;11.50;;;7.25;;
27365;SDS011;14837;57.148;-2.144;2024-03-08T11:08:56;10.73;;;7.93;;
27365;SDS011;14837;57.148;-2.144;2024-03-08T11:11:24;12.25;;;8.70;;
27365;SDS011;14837;57.148;-2.144;2024-03-08T11:13:59;8.50;;;7.55;;
27365;SDS011;14837;57.148;-2.144;2024-03-08T11:18:58;9.02;;;8.07;;
27365;SDS011;14837;57.148;-2.144;2024-03-08T11:21:31;11.35;;;8.70;;
27365;SDS011;14837;57.148;-2.144;2024-03-08T11:24:00;8.95;;;7.78;;
27365;SDS011;14837;57.148;-2.144;2024-03-08T11:26:28;10.85;;;7.95;;
27365;SDS011;14837;57.148;-2.144;2024-03-08T11:31:42;11.38;;;8.48;;
27365;SDS011;14837;57.148;-2.144;2024-03-08T11:34:15;11.57;;;9.60;;
27365;SDS011;14837;57.148;-2.144;2024-03-08T11:36:42;13.10;;;9.48;;
27365;SDS011;14837;57.148;-2.144;2024-03-08T11:39:09;9.52;;;8.52;;
27365;SDS011;14837;57.148;-2.144;2024-03-08T11:41:41;9.80;;;7.53;;
27365;SDS011;14837;57.148;-2.144;2024-03-08T11:44:11;11.60;;;7.90;;
27365;SDS011;14837;57.148;-2.144;2024-03-08T11:46:42;8.55;;;7.65;;
27365;SDS011;14837;57.148;-2.144;2024-03-08T11:49:15;9.80;;;8.30;;
27365;SDS011;14837;57.148;-2.144;2024-03-08T11:51:42;9.07;;;7.95;;
27365;SDS011;14837;57.148;-2.144;2024-03-08T11:54:12;11.30;;;8.77;;
27365;SDS011;14837;57.148;-2.144;2024-03-08T11:56:41;10.73;;;8.13;;
27365;SDS011;14837;57.148;-2.144;2024-03-08T11:59:11;7.47;;;6.65;;
27365;SDS011;14837;57.148;-2.144;2024-03-08T12:01:39;9.50;;;8.32;;
27365;SDS011;14837;57.148;-2.144;2024-03-08T12:04:05;9.20;;;8.25;;
27365;SDS011;14837;57.148;-2.144;2024-03-08T12:06:39;9.95;;;8.50;;
27365;SDS011;14837;57.148;-2.144;2024-03-08T12:09:10;8.77;;;7.28;;
27365;SDS011;14837;57.148;-2.144;2024-03-08T12:11:37;9.40;;;7.55;;
27365;SDS011;14837;57.148;-2.144;2024-03-08T12:14:03;13.43;;;9.50;;
27365;SDS011;14837;57.148;-2.144;2024-03-08T12:16:30;13.00;;;8.43;;
27365;SDS011;14837;57.148;-2.144;2024-03-08T12:18:57;10.52;;;9.02;;
27365;SDS011;14837;57.148;-2.144;2024-03-08T12:21:25;9.68;;;8.02;;
27365;SDS011;14837;57.148;-2.144;2024-03-08T12:24:02;10.02;;;8.63;;
27365;SDS011;14837;57.148;-2.144;2024-03-08T12:26:29;10.50;;;8.02;;
27365;SDS011;14837;57.148;-2.144;2024-03-08T12:29:14;12.88;;;9.15;;
27365;SDS011;14837;57.148;-2.144;2024-03-08T12:31:41;13.90;;;7.68;;
27365;SDS011;14837;57.148;-2.144;2024-03-08T12:34:09;12.10;;;8.15;;
27365;SDS011;14837;57.148;-2.144;2024-03-08T12:36:36;10.65;;;8.45;;
27365;SDS011;14837;57.148;-2.144;2024-03-08T12:39:02;11.93;;;8.95;;
27365;SDS011;14837;57.148;-2.144;2024-03-08T12:41:30;13.40;;;8.88;;
27365;SDS011;14837;57.148;-2.144;2024-03-08T12:43:56;10.45;;;8.25;;
27365;SDS011;14837;57.148;-2.144;2024-03-08T12:46:23;11.65;;;7.90;;
27365;SDS011;14837;57.148;-2.144;2024-03-08T12:48:53;12.88;;;8.65;;
27365;SDS011;14837;57.148;-2.144;2024-03-08T12:51:20;10.90;;;8.48;;
27365;SDS011;14837;57.148;-2.144;2024-03-08T12:53:47;13.07;;;9.90;;
27365;SDS011;14837;57.148;-2.144;2024-03-08T12:56:21;10.40;;;8.63;;
27365;SDS011;14837;57.148;-2.144;2024-03-08T12:58:54;10.98;;;8.88;;
27365;SDS011;14837;57.148;-2.144;2024-03-08T13:01:21;12.45;;;8.57;;
27365;SDS011;14837;57.148;-2.144;2024-03-08T13:03:49;12.23;;;9.43;;
27365;SDS011;14837;57.148;-2.144;2024-03-08T13:06:21;10.65;;;9.40;;
27365;SDS011;14837;57.148;-2.144;2024-03-08T13:08:51;12.88;;;10.23;;
27365;SDS011;14837;57.148;-2.144;2024-03-08T13:11:19;10.18;;;8.73;;
27365;SDS011;14837;57.148;-2.144;2024-03-08T13:13:46;18.13;;;9.45;;
27365;SDS011;14837;57.148;-2.144;2024-03-08T13:16:12;15.80;;;10.10;;
27365;SDS011;14837;57.148;-2.144;2024-03-08T13:18:43;10.68;;;8.25;;
27365;SDS011;14837;57.148;-2.144;2024-03-08T13:21:10;9.50;;;8.43;;
27365;SDS011;14837;57.148;-2.144;2024-03-08T13:23:40;10.02;;;9.02;;
27365;SDS011;14837;57.148;-2.144;2024-03-08T13:26:07;10.20;;;9.05;;
27365;SDS011;14837;57.148;-2.144;2024-03-08T13:28:33;11.18;;;8.80;;
27365;SDS011;14837;57.148;-2.144;2024-03-08T13:31:04;11.52;;;8.07;;
27365;SDS011;14837;57.148;-2.144;2024-03-08T13:33:33;11.75;;;8.27;;
27365;SDS011;14837;57.148;-2.144;2024-03-08T13:36:03;8.73;;;7.90;;
27365;SDS011;14837;57.148;-2.144;2024-03-08T13:38:34;11.07;;;8.00;;
27365;SDS011;14837;57.148;-2.144;2024-03-08T13:41:03;8.88;;;7.95;;
27365;SDS011;14837;57.148;-2.144;2024-03-08T13:43:29;9.57;;;8.25;;
27365;SDS011;14837;57.148;-2.144;2024-03-08T13:46:01;10.57;;;9.50;;
27365;SDS011;14837;57.148;-2.144;2024-03-08T13:48:28;11.25;;;8.70;;
27365;SDS011;14837;57.148;-2.144;2024-03-08T13:50:54;12.18;;;8.95;;
27365;SDS011;14837;57.148;-2.144;2024-03-08T13:53:23;13.25;;;10.30;;
27365;SDS011;14837;57.148;-2.144;2024-03-08T13:55:52;10.52;;;8.98;;
27365;SDS011;14837;57.148;-2.144;2024-03-08T13:58:19;12.18;;;8.50;;
27365;SDS011;14837;57.148;-2.144;2024-03-08T14:00:46;9.93;;;8.48;;
27365;SDS011;14837;57.148;-2.144;2024-03-08T14:03:14;9.55;;;8.27;;
27365;SDS011;14837;57.148;-2.144;2024-03-08T14:05:40;10.32;;;8.18;;
27365;SDS011;14837;57.148;-2.144;2024-03-08T14:08:09;10.20;;;8.13;;
27365;SDS011;14837;57.148;-2.144;2024-03-08T14:10:38;10.18;;;8.80;;
27365;SDS011;14837;57.148;-2.144;2024-03-08T14:13:04;10.48;;;9.38;;
27365;SDS011;14837;57.148;-2.144;2024-03-08T14:15:33;10.70;;;8.60;;
27365;SDS011;14837;57.148;-2.144;2024-03-08T14:18:01;9.13;;;8.00;;
27365;SDS011;14837;57.148;-2.144;2024-03-08T14:20:27;13.52;;;10.13;;
27365;SDS011;14837;57.148;-2.144;2024-03-08T14:22:54;9.88;;;8.23;;
27365;SDS011;14837;57.148;-2.144;2024-03-08T14:25:22;9.82;;;8.48;;
27365;SDS011;14837;57.148;-2.144;2024-03-08T14:27:53;9.25;;;7.28;;
27365;SDS011;14837;57.148;-2.144;2024-03-08T14:30:20;10.15;;;8.13;;
27365;SDS011;14837;57.148;-2.144;2024-03-08T14:33:01;10.85;;;7.88;;
27365;SDS011;14837;57.148;-2.144;2024-03-08T14:35:29;9.88;;;7.72;;
27365;SDS011;14837;57.148;-2.144;2024-03-08T14:37:56;10.98;;;8.07;;
27365;SDS011;14837;57.148;-2.144;2024-03-08T14:40:27;9.77;;;8.02;;
27365;SDS011;14837;57.148;-2.144;2024-03-08T14:42:53;9.52;;;7.97;;
27365;SDS011;14837;57.148;-2.144;2024-03-08T14:45:20;9.38;;;7.93;;